createdAt,value
2018-02-15T00:00:00.900Z,69.54
2018-02-15T00:01:00.887Z,69.07
2018-02-15T00:02:00.878Z,69.07
2018-02-15T00:03:00.868Z,69.26
2018-02-15T00:04:00.859Z,69.45
2018-02-15T00:05:00.849Z,69.45
2018-02-15T00:06:00.840Z,69.17
2018-02-15T00:07:00.829Z,69.73
2018-02-15T00:08:00.821Z,69.92
2018-02-15T00:09:00.811Z,69.35
2018-02-15T00:10:00.801Z,69.64
2018-02-15T00:11:00.792Z,69.54
2018-02-15T00:12:00.783Z,69.17
2018-02-15T00:13:00.773Z,69.64
2018-02-15T00:14:00.763Z,68.60
2018-02-15T00:15:00.754Z,68.88
2018-02-15T00:16:00.745Z,68.98
2018-02-15T00:17:00.736Z,68.79
2018-02-15T00:18:00.725Z,69.17
2018-02-15T00:19:00.719Z,69.54
2018-02-15T00:20:00.707Z,69.35
2018-02-15T00:21:00.702Z,68.79
2018-02-15T00:22:00.690Z,68.32
2018-02-15T00:23:00.679Z,68.98
2018-02-15T00:24:00.670Z,68.79
2018-02-15T00:25:00.660Z,68.79
2018-02-15T00:26:00.650Z,68.88
2018-02-15T00:27:00.641Z,68.23
2018-02-15T00:28:00.631Z,67.94
2018-02-15T00:29:00.627Z,67.94
2018-02-15T00:30:00.612Z,68.32
2018-02-15T00:31:00.601Z,68.70
2018-02-15T00:32:00.594Z,67.75
2018-02-15T00:33:00.585Z,67.94
2018-02-15T00:34:00.574Z,68.23
2018-02-15T00:35:00.564Z,68.13
2018-02-15T00:36:00.555Z,68.04
2018-02-15T00:37:00.547Z,67.85
2018-02-15T00:38:00.535Z,67.66
2018-02-15T00:39:00.526Z,67.66
2018-02-15T00:40:00.518Z,67.85
2018-02-15T00:41:00.508Z,67.85
2018-02-15T00:42:00.498Z,67.38
2018-02-15T00:43:00.489Z,67.47
2018-02-15T00:44:00.480Z,67.47
2018-02-15T00:45:00.471Z,67.57
2018-02-15T00:46:00.461Z,66.90
2018-02-15T00:47:00.452Z,67.47
2018-02-15T00:48:00.441Z,67.28
2018-02-15T00:49:00.434Z,66.81
2018-02-15T00:50:00.426Z,67.19
2018-02-15T00:51:00.413Z,66.71
2018-02-15T00:52:00.405Z,67.57
2018-02-15T00:53:00.394Z,67.66
2018-02-15T00:54:00.384Z,68.41
2018-02-15T00:55:00.375Z,68.00
2018-02-15T00:56:00.366Z,68.29
2018-02-15T00:57:00.356Z,68.66
2018-02-15T00:58:00.345Z,67.91
2018-02-15T00:59:00.335Z,67.91
2018-02-15T01:00:00.327Z,68.10
2018-02-15T01:01:00.319Z,68.41
2018-02-15T01:02:00.307Z,68.23
2018-02-15T01:03:00.301Z,68.13
2018-02-15T01:04:00.287Z,68.23
2018-02-15T01:05:00.281Z,67.66
2018-02-15T01:06:00.268Z,67.75
2018-02-15T01:07:00.260Z,67.38
2018-02-15T01:08:00.250Z,66.90
2018-02-15T01:09:00.239Z,67.09
2018-02-15T01:10:00.229Z,66.81
2018-02-15T01:11:00.219Z,66.34
2018-02-15T01:12:00.210Z,66.81
2018-02-15T01:13:00.200Z,66.62
2018-02-15T01:14:00.191Z,66.43
2018-02-15T01:15:00.181Z,66.62
2018-02-15T01:16:00.171Z,66.81
2018-02-15T01:17:00.164Z,66.71
2018-02-15T01:18:00.151Z,66.52
2018-02-15T01:19:00.144Z,66.34
2018-02-15T01:20:00.136Z,65.96
2018-02-15T01:21:00.124Z,65.30
2018-02-15T01:22:00.114Z,65.39
2018-02-15T01:23:00.104Z,64.73
2018-02-15T01:24:00.094Z,64.17
2018-02-15T01:25:00.085Z,64.54
2018-02-15T01:26:00.123Z,64.36
2018-02-15T01:27:00.066Z,64.26
2018-02-15T01:28:00.057Z,63.98
2018-02-15T01:29:00.048Z,63.60
2018-02-15T01:30:00.039Z,63.13
2018-02-15T01:31:00.030Z,62.94
2018-02-15T01:32:00.023Z,63.03
2018-02-15T01:33:00.010Z,63.32
2018-02-15T01:33:59.998Z,62.56
2018-02-15T01:34:59.988Z,62.84
2018-02-15T01:35:59.979Z,63.03
2018-02-15T01:36:59.970Z,63.32
2018-02-15T01:37:59.960Z,63.13
2018-02-15T01:38:59.951Z,62.84
2018-02-15T01:39:59.941Z,62.47
2018-02-15T01:40:59.931Z,62.28
2018-02-15T01:41:59.924Z,62.47
2018-02-15T01:42:59.912Z,63.22
2018-02-15T01:43:59.903Z,63.60
2018-02-15T01:44:59.894Z,63.79
2018-02-15T01:45:59.883Z,63.89
2018-02-15T01:46:59.873Z,63.60
2018-02-15T01:47:59.865Z,63.89
2018-02-15T01:48:59.857Z,63.79
2018-02-15T01:49:59.844Z,63.98
2018-02-15T01:50:59.836Z,63.79
2018-02-15T01:51:59.826Z,63.60
2018-02-15T01:52:59.816Z,64.36
2018-02-15T01:53:59.807Z,64.36
2018-02-15T01:54:59.796Z,64.83
2018-02-15T01:55:59.787Z,65.01
2018-02-15T01:56:59.779Z,64.64
2018-02-15T01:57:59.769Z,63.98
2018-02-15T01:58:59.759Z,63.41
2018-02-15T01:59:59.750Z,63.89
2018-02-15T02:00:59.744Z,63.32
2018-02-15T02:01:59.731Z,63.60
2018-02-15T02:02:59.721Z,63.41
2018-02-15T02:03:59.711Z,63.79
2018-02-15T02:04:59.703Z,63.89
2018-02-15T02:05:59.692Z,63.22
2018-02-15T02:06:59.682Z,63.70
2018-02-15T02:07:59.673Z,63.13
2018-02-15T02:08:59.664Z,62.37
2018-02-15T02:09:59.652Z,61.61
2018-02-15T02:10:59.644Z,61.33
2018-02-15T02:11:59.634Z,61.05
2018-02-15T02:12:59.625Z,60.86
2018-02-15T02:13:59.615Z,60.21
2018-02-15T02:14:59.605Z,60.02
2018-02-15T02:15:59.597Z,59.73
2018-02-15T02:16:59.586Z,60.11
2018-02-15T02:17:59.575Z,59.83
2018-02-15T02:18:59.567Z,59.26
2018-02-15T02:19:59.557Z,58.50
2018-02-15T02:20:59.548Z,58.88
2018-02-15T02:21:59.538Z,58.41
2018-02-15T02:22:59.529Z,58.69
2018-02-15T02:23:59.520Z,58.79
2018-02-15T02:24:59.509Z,58.69
2018-02-15T02:25:59.500Z,58.79
2018-02-15T02:26:59.491Z,59.35
2018-02-15T02:27:59.480Z,59.64
2018-02-15T02:28:59.475Z,59.45
2018-02-15T02:29:59.462Z,59.35
2018-02-15T02:30:59.451Z,59.17
2018-02-15T02:31:59.445Z,59.45
2018-02-15T02:32:59.434Z,59.26
2018-02-15T02:33:59.424Z,59.35
2018-02-15T02:34:59.416Z,60.02
2018-02-15T02:35:59.405Z,60.21
2018-02-15T02:36:59.399Z,60.39
2018-02-15T02:37:59.386Z,60.11
2018-02-15T02:38:59.376Z,60.21
2018-02-15T02:39:59.366Z,59.83
2018-02-15T02:40:59.461Z,58.88
2018-02-15T02:41:59.348Z,58.88
2018-02-15T02:42:59.338Z,58.50
2018-02-15T02:43:59.329Z,59.07
2018-02-15T02:44:59.319Z,58.88
2018-02-15T02:45:59.310Z,58.50
2018-02-15T02:46:59.300Z,58.31
2018-02-15T02:47:59.290Z,58.60
2018-02-15T02:48:59.280Z,59.26
2018-02-15T02:49:59.270Z,59.35
2018-02-15T02:51:59.252Z,59.83
2018-02-15T02:52:59.242Z,60.11
2018-02-15T02:53:59.233Z,60.58
2018-02-15T02:54:59.223Z,59.83
2018-02-15T02:55:59.214Z,60.68
2018-02-15T02:56:59.203Z,61.05
2018-02-15T02:57:59.194Z,60.02
2018-02-15T02:58:59.184Z,59.26
2018-02-15T02:59:59.174Z,58.98
2018-02-15T03:00:59.167Z,58.88
2018-02-15T03:01:59.163Z,57.84
2018-02-15T03:02:59.148Z,57.94
2018-02-15T03:03:59.138Z,57.84
2018-02-15T03:04:59.129Z,57.65
2018-02-15T03:05:59.117Z,57.84
2018-02-15T03:06:59.110Z,57.65
2018-02-15T03:07:59.100Z,57.37
2018-02-15T03:08:59.089Z,57.18
2018-02-15T03:09:59.080Z,57.28
2018-02-15T03:10:59.070Z,57.84
2018-02-15T03:11:59.060Z,58.12
2018-02-15T03:12:59.053Z,57.94
2018-02-15T03:13:59.043Z,57.28
2018-02-15T03:14:59.032Z,56.81
2018-02-15T03:15:59.022Z,56.90
2018-02-15T03:16:59.013Z,56.71
2018-02-15T03:17:59.004Z,56.52
2018-02-15T03:18:58.994Z,56.71
2018-02-15T03:19:58.986Z,56.71
2018-02-15T03:20:58.976Z,56.90
2018-02-15T03:21:58.966Z,56.05
2018-02-15T03:22:58.959Z,56.52
2018-02-15T03:27:44.515Z,56.15
2018-02-15T03:29:10.181Z,56.62
2018-02-15T03:32:44.463Z,56.81
2018-02-15T03:33:44.448Z,56.90
2018-02-15T03:34:44.438Z,57.37
2018-02-15T03:35:44.429Z,56.90
2018-02-15T03:36:44.421Z,57.28
2018-02-15T03:37:44.410Z,57.94
2018-02-15T03:38:44.401Z,57.65
2018-02-15T03:39:44.391Z,57.37
2018-02-15T03:40:44.383Z,56.90
2018-02-15T03:41:44.371Z,56.81
2018-02-15T03:42:44.363Z,57.18
2018-02-15T03:43:44.354Z,56.74
2018-02-15T03:44:44.345Z,56.27
2018-02-15T03:45:44.337Z,55.70
2018-02-15T03:46:44.326Z,55.77
2018-02-15T03:47:44.316Z,55.77
2018-02-15T03:48:44.309Z,55.96
2018-02-15T03:49:44.296Z,56.34
2018-02-15T03:50:44.288Z,56.08
2018-02-15T03:51:44.279Z,55.58
2018-02-15T03:52:44.270Z,55.80
2018-02-15T03:53:44.259Z,55.49
2018-02-15T03:54:44.251Z,55.61
2018-02-15T03:55:44.239Z,55.77
2018-02-15T03:56:44.232Z,55.61
2018-02-15T03:57:44.221Z,55.42
2018-02-15T03:58:44.210Z,55.42
2018-02-15T03:59:44.204Z,55.51
2018-02-15T04:00:44.192Z,55.39
2018-02-15T04:01:44.184Z,55.20
2018-02-15T04:02:44.174Z,55.04
2018-02-15T04:03:44.165Z,54.66
2018-02-15T04:04:44.155Z,54.75
2018-02-15T04:05:44.146Z,55.32
2018-02-15T04:06:44.137Z,55.32
2018-02-15T04:07:44.127Z,55.61
2018-02-15T04:08:44.118Z,55.23
2018-02-15T04:09:44.108Z,55.61
2018-02-15T04:10:44.099Z,55.80
2018-02-15T04:11:44.090Z,56.36
2018-02-15T04:12:44.082Z,57.21
2018-02-15T04:13:44.070Z,56.74
2018-02-15T04:14:44.062Z,56.93
2018-02-15T04:15:44.053Z,56.93
2018-02-15T04:16:44.044Z,57.03
2018-02-15T04:17:44.034Z,56.74
2018-02-15T04:18:44.027Z,56.65
2018-02-15T04:19:44.015Z,57.31
2018-02-15T04:20:44.005Z,57.31
2018-02-15T04:21:43.994Z,56.93
2018-02-15T04:22:43.987Z,57.31
2018-02-15T04:23:43.978Z,57.31
2018-02-15T04:24:43.968Z,57.03
2018-02-15T04:25:43.957Z,56.36
2018-02-15T04:26:43.948Z,55.42
2018-02-15T04:27:43.940Z,55.61
2018-02-15T04:28:43.930Z,55.04
2018-02-15T04:29:43.922Z,55.51
2018-02-15T04:30:43.912Z,55.51
2018-02-15T04:31:43.993Z,55.32
2018-02-15T04:32:43.892Z,55.80
2018-02-15T04:33:43.882Z,55.51
2018-02-15T04:34:43.873Z,55.42
2018-02-15T04:35:43.865Z,55.61
2018-02-15T04:36:43.857Z,55.23
2018-02-15T04:37:43.847Z,54.85
2018-02-15T04:38:43.837Z,54.75
2018-02-15T04:39:43.828Z,54.19
2018-02-15T04:40:43.820Z,54.75
2018-02-15T04:41:43.809Z,54.94
2018-02-15T04:42:43.801Z,54.47
2018-02-15T04:43:43.792Z,54.10
2018-02-15T04:44:43.782Z,53.91
2018-02-15T04:45:43.773Z,54.19
2018-02-15T04:46:43.762Z,54.28
2018-02-15T04:47:43.755Z,53.72
2018-02-15T04:48:43.743Z,53.91
2018-02-15T04:49:43.735Z,53.81
2018-02-15T04:50:43.724Z,54.19
2018-02-15T04:51:43.717Z,53.72
2018-02-15T04:52:43.710Z,53.63
2018-02-15T04:53:43.723Z,53.15
2018-02-15T04:54:43.689Z,53.06
2018-02-15T04:55:43.680Z,53.25
2018-02-15T04:56:43.671Z,53.72
2018-02-15T04:57:43.661Z,53.91
2018-02-15T04:58:43.652Z,53.44
2018-02-15T04:59:43.643Z,53.25
2018-02-15T05:00:43.634Z,53.25
2018-02-15T05:01:43.623Z,53.81
2018-02-15T05:02:43.615Z,53.53
2018-02-15T05:03:43.607Z,53.53
2018-02-15T05:04:43.596Z,53.91
2018-02-15T05:05:43.588Z,54.10
2018-02-15T05:06:43.579Z,54.19
2018-02-15T05:07:43.569Z,54.10
2018-02-15T05:08:43.562Z,54.19
2018-02-15T05:09:43.552Z,53.53
2018-02-15T05:10:43.542Z,54.38
2018-02-15T05:11:43.532Z,54.28
2018-02-15T05:12:43.525Z,54.10
2018-02-15T05:13:43.516Z,54.28
2018-02-15T05:14:43.509Z,54.10
2018-02-15T05:15:43.497Z,53.63
2018-02-15T05:16:43.487Z,53.81
2018-02-15T05:17:43.478Z,54.10
2018-02-15T05:18:43.472Z,54.28
2018-02-15T05:19:43.459Z,55.13
2018-02-15T05:20:43.457Z,54.75
2018-02-15T05:21:43.441Z,54.66
2018-02-15T05:22:43.433Z,54.85
2018-02-15T05:23:43.424Z,54.75
2018-02-15T05:24:43.415Z,54.57
2018-02-15T05:25:43.405Z,54.66
2018-02-15T05:26:43.399Z,54.57
2018-02-15T05:27:43.388Z,54.57
2018-02-15T05:28:43.380Z,54.47
2018-02-15T05:29:43.368Z,54.66
2018-02-15T05:30:43.361Z,54.75
2018-02-15T05:31:43.350Z,54.38
2018-02-15T05:32:43.342Z,54.10
2018-02-15T05:33:43.332Z,54.57
2018-02-15T05:34:43.323Z,54.75
2018-02-15T05:35:43.315Z,54.57
2018-02-15T05:36:43.307Z,54.38
2018-02-15T05:37:43.297Z,54.10
2018-02-15T05:38:43.288Z,54.47
2018-02-15T05:39:43.279Z,54.75
2018-02-15T05:40:43.270Z,54.57
2018-02-15T05:41:43.261Z,55.23
2018-02-15T05:42:43.252Z,54.85
2018-02-15T05:43:43.243Z,54.85
2018-02-15T05:44:43.247Z,54.38
2018-02-15T05:45:43.226Z,54.28
2018-02-15T05:46:43.217Z,53.72
2018-02-15T05:47:43.206Z,53.34
2018-02-15T05:48:43.198Z,53.15
2018-02-15T05:49:43.189Z,52.78
2018-02-15T05:50:43.181Z,52.96
2018-02-15T05:51:43.171Z,53.15
2018-02-15T05:52:43.161Z,53.81
2018-02-15T05:53:43.153Z,53.06
2018-02-15T05:54:43.144Z,53.34
2018-02-15T05:55:43.135Z,53.15
2018-02-15T05:56:43.127Z,53.15
2018-02-15T05:57:43.127Z,53.15
2018-02-15T05:58:43.108Z,52.49
2018-02-15T05:59:43.098Z,53.06
2018-02-15T06:00:43.091Z,53.34
2018-02-15T06:01:43.121Z,53.25
2018-02-15T06:02:43.071Z,52.78
2018-02-15T06:03:43.067Z,52.96
2018-02-15T06:04:43.054Z,52.96
2018-02-15T06:05:43.044Z,54.10
2018-02-15T06:06:43.037Z,54.19
2018-02-15T06:07:43.028Z,54.00
2018-02-15T06:08:43.018Z,54.38
2018-02-15T06:09:43.009Z,54.66
2018-02-15T06:10:43.000Z,54.57
2018-02-15T06:11:42.992Z,53.91
2018-02-15T06:12:42.983Z,54.00
2018-02-15T06:13:42.974Z,53.72
2018-02-15T06:14:42.965Z,54.57
2018-02-15T06:15:42.956Z,54.19
2018-02-15T06:16:42.949Z,54.19
2018-02-15T06:17:42.938Z,53.81
2018-02-15T06:18:42.928Z,53.06
2018-02-15T06:19:42.920Z,53.25
2018-02-15T06:20:42.911Z,53.53
2018-02-15T06:21:42.902Z,53.91
2018-02-15T06:22:42.893Z,53.72
2018-02-15T06:23:42.885Z,52.49
2018-02-15T06:24:42.876Z,52.59
2018-02-15T06:25:42.867Z,52.59
2018-02-15T06:26:42.858Z,52.02
2018-02-15T06:27:42.859Z,51.36
2018-02-15T06:28:42.841Z,51.54
2018-02-15T06:29:42.830Z,51.07
2018-02-15T06:30:42.821Z,50.89
2018-02-15T06:31:42.814Z,50.23
2018-02-15T06:32:42.806Z,50.35
2018-02-15T06:33:42.796Z,50.60
2018-02-15T06:34:42.787Z,50.63
2018-02-15T06:35:42.778Z,50.44
2018-02-15T06:36:42.770Z,50.72
2018-02-15T06:37:42.760Z,50.72
2018-02-15T06:38:42.751Z,50.35
2018-02-15T06:39:42.743Z,50.53
2018-02-15T06:40:42.735Z,50.63
2018-02-15T06:41:42.723Z,50.72
2018-02-15T06:42:42.717Z,51.20
2018-02-15T06:43:42.708Z,51.29
2018-02-15T06:44:42.698Z,51.48
2018-02-15T06:45:42.690Z,51.76
2018-02-15T06:46:42.680Z,51.67
2018-02-15T06:47:42.672Z,52.04
2018-02-15T06:48:42.666Z,52.04
2018-02-15T06:49:42.654Z,52.04
2018-02-15T06:50:42.645Z,52.51
2018-02-15T06:51:42.636Z,53.75
2018-02-15T06:52:42.629Z,53.75
2018-02-15T06:53:42.618Z,53.37
2018-02-15T06:54:42.611Z,53.08
2018-02-15T06:55:42.601Z,52.89
2018-02-15T06:56:42.630Z,52.51
2018-02-15T06:57:42.586Z,53.08
2018-02-15T06:58:42.576Z,52.89
2018-02-15T06:59:42.566Z,52.23
2018-02-15T07:00:42.559Z,52.51
2018-02-15T07:01:42.549Z,52.42
2018-02-15T07:02:42.541Z,52.99
2018-02-15T07:03:42.533Z,52.80
2018-02-15T07:04:42.524Z,52.99
2018-02-15T07:05:42.519Z,53.37
2018-02-15T07:06:42.508Z,53.18
2018-02-15T07:07:42.498Z,52.89
2018-02-15T07:08:42.490Z,52.23
2018-02-15T07:09:42.479Z,51.20
2018-02-15T07:10:42.472Z,51.48
2018-02-15T07:11:42.464Z,51.20
2018-02-15T07:12:42.456Z,50.91
2018-02-15T07:13:42.446Z,50.35
2018-02-15T07:14:42.437Z,50.53
2018-02-15T07:15:42.430Z,50.53
2018-02-15T07:16:42.423Z,50.53
2018-02-15T07:17:42.412Z,50.06
2018-02-15T07:18:42.405Z,48.93
2018-02-15T07:19:42.396Z,48.83
2018-02-15T07:20:42.387Z,48.83
2018-02-15T07:21:42.377Z,48.55
2018-02-15T07:22:42.369Z,48.27
2018-02-15T07:23:42.360Z,48.55
2018-02-15T07:24:42.353Z,48.27
2018-02-15T07:25:42.344Z,49.02
2018-02-15T07:26:42.349Z,49.78
2018-02-15T07:27:42.341Z,49.40
2018-02-15T07:28:42.318Z,48.55
2018-02-15T07:29:42.309Z,48.27
2018-02-15T07:30:42.300Z,47.99
2018-02-15T07:31:42.293Z,48.08
2018-02-15T07:32:42.285Z,48.76
2018-02-15T07:33:42.282Z,48.29
2018-02-15T07:34:42.269Z,47.89
2018-02-15T07:35:42.260Z,47.99
2018-02-15T07:36:42.252Z,47.70
2018-02-15T07:37:42.243Z,47.82
2018-02-15T07:38:42.278Z,48.01
2018-02-15T07:39:42.284Z,47.61
2018-02-15T07:40:42.240Z,47.70
2018-02-15T07:41:42.298Z,47.89
2018-02-15T07:42:42.202Z,48.08
2018-02-15T07:43:42.211Z,49.24
2018-02-15T07:44:42.440Z,48.86
2018-02-15T07:45:43.433Z,48.76
2018-02-15T07:46:42.242Z,48.86
2018-02-15T07:47:42.212Z,48.76
2018-02-15T07:48:42.204Z,48.76
2018-02-15T07:49:42.239Z,49.24
2018-02-15T07:50:42.228Z,48.86
2018-02-15T07:51:42.198Z,48.39
2018-02-15T07:52:42.159Z,48.95
2018-02-15T07:53:42.385Z,49.05
2018-02-15T07:54:42.196Z,49.05
2018-02-15T07:55:42.192Z,48.76
2018-02-15T07:56:42.086Z,48.29
2018-02-15T07:57:42.182Z,48.86
2018-02-15T07:58:42.122Z,47.82
2018-02-15T07:59:42.169Z,47.91
2018-02-15T08:00:42.156Z,47.16
2018-02-15T08:01:42.586Z,46.88
2018-02-15T08:02:42.114Z,46.88
2018-02-15T08:03:42.097Z,46.69
2018-02-15T08:04:42.182Z,46.40
2018-02-15T08:05:42.033Z,46.88
2018-02-15T08:06:42.049Z,46.88
2018-02-15T08:07:42.271Z,46.97
2018-02-15T08:08:42.029Z,45.83
2018-02-15T08:09:41.984Z,45.74
2018-02-15T08:10:41.992Z,45.93
2018-02-15T08:11:42.031Z,45.74
2018-02-15T08:12:41.988Z,45.45
2018-02-15T08:13:41.993Z,45.27
2018-02-15T08:14:42.141Z,45.64
2018-02-15T08:15:42.033Z,45.74
2018-02-15T08:16:41.967Z,45.45
2018-02-15T08:17:41.920Z,45.45
2018-02-15T08:18:41.909Z,46.02
2018-02-15T08:19:41.902Z,45.83
2018-02-15T08:20:41.894Z,45.74
2018-02-15T08:21:41.884Z,46.31
2018-02-15T08:22:42.165Z,46.21
2018-02-15T08:23:41.917Z,46.69
2018-02-15T08:24:41.952Z,46.31
2018-02-15T08:25:41.951Z,45.83
2018-02-15T08:26:41.859Z,45.83
2018-02-15T08:27:41.842Z,46.21
2018-02-15T08:28:41.830Z,46.02
2018-02-15T08:29:41.821Z,46.40
2018-02-15T08:30:41.872Z,46.31
2018-02-15T08:31:41.847Z,46.40
2018-02-15T08:32:41.803Z,46.50
2018-02-15T08:33:41.915Z,45.64
2018-02-15T08:34:41.782Z,45.64
2018-02-15T08:35:41.784Z,45.74
2018-02-15T08:36:41.765Z,45.17
2018-02-15T08:37:41.758Z,45.17
2018-02-15T08:38:41.750Z,45.20
2018-02-15T08:39:41.744Z,45.36
2018-02-15T08:40:41.734Z,45.29
2018-02-15T08:41:41.725Z,45.01
2018-02-15T08:42:41.745Z,44.91
2018-02-15T08:43:41.711Z,45.29
2018-02-15T08:44:41.704Z,45.39
2018-02-15T08:45:41.703Z,45.29
2018-02-15T08:46:41.690Z,45.01
2018-02-15T08:47:41.684Z,45.29
2018-02-15T08:48:41.672Z,45.29
2018-02-15T08:49:41.665Z,45.39
2018-02-15T08:50:41.657Z,45.57
2018-02-15T08:51:41.771Z,46.42
2018-02-15T08:52:41.642Z,46.42
2018-02-15T08:53:41.675Z,46.14
2018-02-15T08:54:41.662Z,46.04
2018-02-15T08:55:41.633Z,46.33
2018-02-15T08:56:41.613Z,46.33
2018-02-15T08:57:41.613Z,46.52
2018-02-15T08:58:41.597Z,46.90
2018-02-15T08:59:41.589Z,45.57
2018-02-15T09:00:41.590Z,45.57
2018-02-15T09:01:41.582Z,45.20
2018-02-15T09:02:41.568Z,45.10
2018-02-15T09:03:41.559Z,45.57
2018-02-15T09:04:41.552Z,45.20
2018-02-15T09:05:41.544Z,45.29
2018-02-15T09:06:41.538Z,45.22
2018-02-15T09:07:41.530Z,45.01
2018-02-15T09:08:41.523Z,45.50
2018-02-15T09:09:41.553Z,45.31
2018-02-15T09:10:41.510Z,44.84
2018-02-15T09:11:41.503Z,44.46
2018-02-15T09:12:41.505Z,44.93
2018-02-15T09:13:41.487Z,44.46
2018-02-15T09:14:41.483Z,44.46
2018-02-15T09:15:41.473Z,43.71
2018-02-15T09:16:41.466Z,43.61
2018-02-15T09:17:41.462Z,43.71
2018-02-15T09:18:41.451Z,43.42
2018-02-15T09:19:41.522Z,43.52
2018-02-15T09:20:41.437Z,43.71
2018-02-15T09:21:41.574Z,43.42
2018-02-15T09:22:41.454Z,43.61
2018-02-15T09:23:41.449Z,43.23
2018-02-15T09:24:41.493Z,42.66
2018-02-15T09:25:41.460Z,42.38
2018-02-15T09:26:41.456Z,42.38
2018-02-15T09:27:41.424Z,42.66
2018-02-15T09:28:41.473Z,42.66
2018-02-15T09:29:41.377Z,42.66
2018-02-15T09:30:41.382Z,42.66
2018-02-15T09:31:41.406Z,41.93
2018-02-15T09:32:41.356Z,42.21
2018-02-15T09:33:41.350Z,41.25
2018-02-15T09:34:41.345Z,40.89
2018-02-15T09:35:41.337Z,40.98
2018-02-15T09:36:41.330Z,41.17
2018-02-15T09:37:41.323Z,41.17
2018-02-15T09:38:41.318Z,42.02
2018-02-15T09:39:41.322Z,42.02
2018-02-15T09:40:41.306Z,42.21
2018-02-15T09:41:41.298Z,42.59
2018-02-15T09:42:41.291Z,43.16
2018-02-15T09:43:41.285Z,43.35
2018-02-15T09:44:41.281Z,43.44
2018-02-15T09:45:41.312Z,44.20
2018-02-15T09:46:41.298Z,44.48
2018-02-15T09:47:41.260Z,44.10
2018-02-15T09:48:41.254Z,44.39
2018-02-15T09:49:41.247Z,44.58
2018-02-15T09:50:41.241Z,44.96
2018-02-15T09:51:41.235Z,45.24
2018-02-15T09:52:41.327Z,45.90
2018-02-15T09:53:41.236Z,45.53
2018-02-15T09:54:41.218Z,45.62
2018-02-15T09:55:41.210Z,45.53
2018-02-15T09:56:41.205Z,44.96
2018-02-15T09:57:41.240Z,44.27
2018-02-15T09:58:41.191Z,44.39
2018-02-15T09:59:41.585Z,44.58
2018-02-15T10:00:41.182Z,43.26
2018-02-15T10:01:41.173Z,42.69
2018-02-15T10:02:41.172Z,42.59
2018-02-15T10:03:41.161Z,41.55
2018-02-15T10:04:41.182Z,40.98
2018-02-15T10:05:41.148Z,40.79
2018-02-15T10:06:41.142Z,41.08
2018-02-15T10:07:41.136Z,41.08
2018-02-15T10:08:41.169Z,41.36
2018-02-15T10:09:41.123Z,41.08
2018-02-15T10:10:41.137Z,41.27
2018-02-15T10:11:41.115Z,41.08
2018-02-15T10:12:41.104Z,41.08
2018-02-15T10:13:41.098Z,41.17
2018-02-15T10:14:41.092Z,40.98
2018-02-15T10:15:41.092Z,40.98
2018-02-15T10:16:41.081Z,41.08
2018-02-15T10:17:41.073Z,41.36
2018-02-15T10:18:41.068Z,41.27
2018-02-15T10:19:41.064Z,41.74
2018-02-15T10:20:41.055Z,41.55
2018-02-15T10:21:41.075Z,41.17
2018-02-15T10:22:41.041Z,41.93
2018-02-15T10:23:41.036Z,42.50
2018-02-15T10:24:41.052Z,41.74
2018-02-15T10:25:41.071Z,42.11
2018-02-15T10:26:41.017Z,42.59
2018-02-15T10:27:41.023Z,42.30
2018-02-15T10:28:41.036Z,41.36
2018-02-15T10:29:40.998Z,41.27
2018-02-15T10:30:40.992Z,40.79
2018-02-15T10:31:40.985Z,41.08
2018-02-15T10:32:40.979Z,40.79
2018-02-15T10:33:40.973Z,40.89
2018-02-15T10:34:40.976Z,41.08
2018-02-15T10:35:40.962Z,40.13
2018-02-15T10:36:40.956Z,39.94
2018-02-15T10:37:40.946Z,39.75
2018-02-15T10:38:40.956Z,39.00
2018-02-15T10:39:40.997Z,39.09
2018-02-15T10:40:40.936Z,38.71
2018-02-15T10:41:40.923Z,38.62
2018-02-15T10:42:40.919Z,39.18
2018-02-15T10:43:40.911Z,38.71
2018-02-15T10:44:40.905Z,38.43
2018-02-15T10:45:40.897Z,38.24
2018-02-15T10:46:40.891Z,37.57
2018-02-15T10:47:40.886Z,37.57
2018-02-15T10:48:40.884Z,37.29
2018-02-15T10:49:40.873Z,37.19
2018-02-15T10:50:40.867Z,37.95
2018-02-15T10:51:40.860Z,37.76
2018-02-15T10:52:40.855Z,37.86
2018-02-15T10:53:40.846Z,37.19
2018-02-15T10:54:40.840Z,37.57
2018-02-15T10:55:40.835Z,37.59
2018-02-15T10:56:40.829Z,37.19
2018-02-15T10:57:40.823Z,37.67
2018-02-15T10:58:40.817Z,38.24
2018-02-15T10:59:40.810Z,38.71
2018-02-15T11:00:40.810Z,39.09
2018-02-15T11:01:40.798Z,39.28
2018-02-15T11:02:40.797Z,39.56
2018-02-15T11:03:40.808Z,40.22
2018-02-15T11:04:40.783Z,40.91
2018-02-15T11:05:40.929Z,40.72
2018-02-15T11:06:40.765Z,40.34
2018-02-15T11:07:40.761Z,39.87
2018-02-15T11:08:40.753Z,39.77
2018-02-15T11:09:40.758Z,39.87
2018-02-15T11:10:40.748Z,40.06
2018-02-15T11:11:40.735Z,40.03
2018-02-15T11:12:40.729Z,40.91
2018-02-15T11:13:40.723Z,41.09
2018-02-15T11:14:40.716Z,41.57
2018-02-15T11:15:40.787Z,41.47
2018-02-15T11:16:40.705Z,41.57
2018-02-15T11:17:40.697Z,41.76
2018-02-15T11:18:40.691Z,42.43
2018-02-15T11:19:40.688Z,42.59
2018-02-15T11:20:40.684Z,42.33
2018-02-15T11:21:40.672Z,41.47
2018-02-15T11:22:40.666Z,40.98
2018-02-15T11:23:40.662Z,41.28
2018-02-15T11:24:40.655Z,40.72
2018-02-15T11:25:40.664Z,41.47
2018-02-15T11:26:40.642Z,42.52
2018-02-15T11:27:40.635Z,43.37
2018-02-15T11:28:40.630Z,41.95
2018-02-15T11:29:40.624Z,41.85
2018-02-15T11:30:40.615Z,42.04
2018-02-15T11:31:40.611Z,41.66
2018-02-15T11:32:40.695Z,42.23
2018-02-15T11:33:40.643Z,42.04
2018-02-15T11:34:40.659Z,42.04
2018-02-15T11:35:40.586Z,41.85
2018-02-15T11:36:40.581Z,42.23
2018-02-15T11:37:40.682Z,42.61
2018-02-15T11:38:40.568Z,42.04
2018-02-15T11:39:40.564Z,42.23
2018-02-15T11:40:40.556Z,43.08
2018-02-15T11:41:40.548Z,42.61
2018-02-15T11:42:40.545Z,42.23
2018-02-15T11:43:40.544Z,41.95
2018-02-15T11:44:40.531Z,41.00
2018-02-15T11:45:40.606Z,41.38
2018-02-15T11:46:40.575Z,41.00
2018-02-15T11:47:40.602Z,40.53
2018-02-15T11:48:40.507Z,41.00
2018-02-15T11:49:40.541Z,41.19
2018-02-15T11:50:40.495Z,41.19
2018-02-15T11:51:40.489Z,41.28
2018-02-15T11:52:40.483Z,41.19
2018-02-15T11:53:40.531Z,42.14
2018-02-15T11:54:40.470Z,43.46
2018-02-15T11:55:40.563Z,42.71
2018-02-15T11:56:40.524Z,42.04
2018-02-15T11:57:40.502Z,41.76
2018-02-15T11:58:40.446Z,41.85
2018-02-15T11:59:40.447Z,41.00
2018-02-15T12:00:40.487Z,41.19
2018-02-15T12:01:40.427Z,41.09
2018-02-15T12:02:40.522Z,41.09
2018-02-15T12:03:40.416Z,41.00
2018-02-15T12:04:40.476Z,42.33
2018-02-15T12:05:40.412Z,41.66
2018-02-15T12:06:40.635Z,40.53
2018-02-15T12:07:40.391Z,40.91
2018-02-15T12:08:40.417Z,41.19
2018-02-15T12:09:40.508Z,41.76
2018-02-15T12:10:40.413Z,41.00
2018-02-15T12:11:40.367Z,41.95
2018-02-15T12:12:40.361Z,43.35
2018-02-15T12:13:40.355Z,43.54
2018-02-15T12:14:40.349Z,44.58
2018-02-15T12:15:40.342Z,45.15
2018-02-15T12:16:40.339Z,45.05
2018-02-15T12:17:40.333Z,44.67
2018-02-15T12:18:40.324Z,43.73
2018-02-15T12:19:40.329Z,42.30
2018-02-15T12:20:40.313Z,41.38
2018-02-15T12:21:40.304Z,41.09
2018-02-15T12:22:40.300Z,40.72
2018-02-15T12:23:40.465Z,41.95
2018-02-15T12:24:40.328Z,43.08
2018-02-15T12:25:40.330Z,43.75
2018-02-15T12:26:40.275Z,45.64
2018-02-15T12:27:40.362Z,47.16
2018-02-15T12:28:40.262Z,49.05
2018-02-15T12:29:40.291Z,51.04
2018-02-15T12:30:40.881Z,53.19
2018-02-15T12:31:40.265Z,53.66
2018-02-15T12:32:40.237Z,54.61
2018-02-15T12:33:40.478Z,55.46
2018-02-15T12:34:40.578Z,56.88
2018-02-15T12:35:40.366Z,58.40
2018-02-15T12:36:40.212Z,60.38
2018-02-15T12:37:40.205Z,61.71
2018-02-15T12:38:40.201Z,63.23
2018-02-15T12:39:40.193Z,65.21
2018-02-15T12:40:40.185Z,66.82
2018-02-15T12:41:40.179Z,68.71
2018-02-15T12:42:40.173Z,69.06
2018-02-15T12:43:40.320Z,69.63
2018-02-15T12:44:40.470Z,70.86
2018-02-15T12:45:40.246Z,71.33
2018-02-15T12:46:40.285Z,72.47
2018-02-15T12:47:40.367Z,72.47
2018-02-15T12:48:40.134Z,73.32
2018-02-15T12:49:40.218Z,74.26
2018-02-15T12:50:40.253Z,75.78
2018-02-15T12:51:40.318Z,77.29
2018-02-15T12:52:40.297Z,78.05
2018-02-15T12:53:40.230Z,78.99
2018-02-15T12:54:40.143Z,78.99
2018-02-15T12:55:40.086Z,78.80
2018-02-15T12:56:40.224Z,78.71
2018-02-15T12:57:40.421Z,78.71
2018-02-15T12:58:40.288Z,79.09
2018-02-15T12:59:40.222Z,78.42